Time;durP1;ratioP1;P1;durP2;ratioP2;P2;SDS_P1;SDS_P2;PMS_P1;PMS_P2;Temp;Humidity;BMP_temperature;BMP_pressure;BME280_temperature;BME280_humidity;BME280_pressure;Samples;Min_cycle;Max_cycle;Signal;HPM_P1;HPM_P2
2022/09/25 00:02:10;;;;;;;23.63;14.68;;;13.60;99.90;;;;;;5039897;28;20606;-75
2022/09/25 00:04:37;;;;;;;25.10;15.88;;;13.60;99.90;;;;;;5040000;28;20197;-75
2022/09/25 00:07:04;;;;;;;15.38;9.93;;;13.60;99.90;;;;;;5046614;28;20231;-74
2022/09/25 00:09:31;;;;;;;22.92;9.98;;;13.60;99.90;;;;;;5043578;28;20258;-74
2022/09/25 00:11:58;;;;;;;11.00;8.43;;;13.60;99.90;;;;;;5046754;28;20675;-73
2022/09/25 00:14:26;;;;;;;19.60;9.80;;;13.60;99.90;;;;;;5039594;28;20287;-74
2022/09/25 00:16:53;;;;;;;18.50;8.95;;;13.70;99.90;;;;;;5044739;28;20339;-74
2022/09/25 00:22:06;;;;;;;13.32;7.50;;;13.60;99.90;;;;;;5040856;28;20207;-75
2022/09/25 00:24:34;;;;;;;13.43;7.50;;;13.60;99.90;;;;;;5046878;28;20199;-74
2022/09/25 00:27:01;;;;;;;12.30;7.60;;;13.70;99.90;;;;;;5044641;28;20265;-72
2022/09/25 00:29:30;;;;;;;9.27;6.93;;;13.70;99.90;;;;;;5042701;28;20286;-73
2022/09/25 00:31:58;;;;;;;14.13;6.70;;;13.60;99.90;;;;;;5048329;28;20212;-74
2022/09/25 00:34:25;;;;;;;17.90;7.63;;;13.60;99.90;;;;;;5047931;28;20286;-74
2022/09/25 00:36:52;;;;;;;15.00;7.85;;;13.60;99.90;;;;;;5034886;28;20285;-74
2022/09/25 00:39:19;;;;;;;7.95;5.47;;;13.60;99.90;;;;;;5046110;28;20232;-75
2022/09/25 00:41:46;;;;;;;11.85;7.18;;;13.60;99.90;;;;;;5046604;28;20210;-76
2022/09/25 00:44:55;;;;;;;12.57;7.60;;;13.60;99.90;;;;;;5034100;28;20261;-75
2022/09/25 00:47:28;;;;;;;15.57;6.90;;;13.70;99.90;;;;;;5044968;28;20231;-74
2022/09/25 00:49:57;;;;;;;13.65;6.95;;;13.70;99.90;;;;;;5018159;28;20717;-74
2022/09/25 00:52:26;;;;;;;16.27;7.05;;;13.70;99.90;;;;;;5033881;28;20653;-74
2022/09/25 00:54:57;;;;;;;13.68;6.28;;;13.70;99.90;;;;;;5034264;28;20208;-74
2022/09/25 00:57:29;;;;;;;13.52;6.35;;;13.70;99.90;;;;;;5039349;28;20314;-77
2022/09/25 01:00:01;;;;;;;13.77;6.18;;;13.70;99.90;;;;;;5046060;28;20286;-72
2022/09/25 01:02:31;;;;;;;21.55;6.90;;;13.70;99.90;;;;;;5041682;28;20191;-73
2022/09/25 01:05:01;;;;;;;12.98;6.50;;;13.80;99.90;;;;;;5046596;28;20265;-74
2022/09/25 01:07:30;;;;;;;13.10;7.72;;;13.70;99.90;;;;;;5039077;28;20232;-73
2022/09/25 01:09:58;;;;;;;24.42;14.93;;;13.70;99.90;;;;;;5040167;28;20561;-72
2022/09/25 01:12:25;;;;;;;15.40;8.45;;;13.70;99.90;;;;;;5046098;28;20670;-75
2022/09/25 01:14:52;;;;;;;15.38;7.60;;;13.70;99.90;;;;;;5044498;28;20661;-73
2022/09/25 01:17:27;;;;;;;13.43;7.05;;;13.60;99.90;;;;;;5055050;28;20257;-74
2022/09/25 01:20:04;;;;;;;13.75;8.13;;;13.70;99.90;;;;;;5045622;28;20210;-74
2022/09/25 01:22:45;;;;;;;17.02;7.78;;;13.60;99.90;;;;;;5033098;28;20210;-72
2022/09/25 01:25:26;;;;;;;18.50;7.15;;;13.70;99.90;;;;;;5037728;28;20261;-72
2022/09/25 01:28:08;;;;;;;13.93;7.15;;;13.60;99.90;;;;;;5029240;28;20316;-75
2022/09/25 01:30:42;;;;;;;18.65;8.30;;;13.60;99.90;;;;;;5052073;28;20202;-71
2022/09/25 01:33:14;;;;;;;15.77;6.05;;;13.60;99.90;;;;;;5043877;28;20561;-74
2022/09/25 01:35:49;;;;;;;9.40;5.30;;;13.60;99.90;;;;;;5042625;28;20203;-76
2022/09/25 01:38:26;;;;;;;12.90;4.95;;;13.70;99.90;;;;;;5042270;28;20554;-73
2022/09/25 01:41:02;;;;;;;15.77;5.38;;;13.60;99.90;;;;;;5046412;28;20211;-74
2022/09/25 01:43:36;;;;;;;16.55;5.85;;;13.60;99.90;;;;;;5022373;28;20210;-75
2022/09/25 01:46:10;;;;;;;11.40;5.18;;;13.60;99.90;;;;;;5026560;28;20203;-75
2022/09/25 01:48:41;;;;;;;15.63;6.38;;;13.60;99.90;;;;;;5020099;28;20683;-76
2022/09/25 01:51:16;;;;;;;17.85;6.20;;;13.60;99.90;;;;;;5037987;28;20212;-75
2022/09/25 01:53:48;;;;;;;10.02;6.20;;;13.60;99.90;;;;;;5046166;28;20336;-75
2022/09/25 01:56:21;;;;;;;17.05;7.03;;;13.70;99.90;;;;;;5041296;28;20199;-74
2022/09/25 01:58:53;;;;;;;11.63;6.25;;;13.70;99.90;;;;;;5042719;28;20265;-73
2022/09/25 02:01:27;;;;;;;13.30;5.50;;;13.70;99.90;;;;;;5039043;28;20223;-74
2022/09/25 02:03:57;;;;;;;14.27;6.70;;;13.70;99.90;;;;;;5041579;28;20214;-73
2022/09/25 02:06:25;;;;;;;16.92;6.55;;;13.70;99.90;;;;;;5048483;28;20215;-75
2022/09/25 02:08:57;;;;;;;15.63;7.22;;;13.70;99.90;;;;;;5041926;28;20232;-74
2022/09/25 02:11:29;;;;;;;18.60;6.90;;;13.60;99.90;;;;;;5044045;28;20814;-72
2022/09/25 02:13:59;;;;;;;16.02;7.43;;;13.70;99.90;;;;;;5038464;28;20665;-74
2022/09/25 02:16:31;;;;;;;14.32;8.07;;;13.70;99.90;;;;;;5040381;28;20291;-71
2022/09/25 02:21:49;;;;;;;16.38;7.95;;;13.70;99.90;;;;;;5038885;28;20226;-74
2022/09/25 02:24:21;;;;;;;17.13;8.85;;;13.80;99.90;;;;;;5049845;28;20203;-73
2022/09/25 02:26:49;;;;;;;19.83;8.95;;;13.90;99.90;;;;;;5038784;28;20234;-75
2022/09/25 02:29:18;;;;;;;12.05;7.55;;;13.80;99.90;;;;;;5042970;28;20299;-74
2022/09/25 02:31:50;;;;;;;10.43;7.93;;;13.80;99.90;;;;;;5040559;28;20736;-75
2022/09/25 02:34:17;;;;;;;16.00;8.63;;;13.80;99.90;;;;;;5037084;28;20290;-75
2022/09/25 02:36:44;;;;;;;15.73;7.05;;;13.80;99.90;;;;;;5039978;28;20525;-73
2022/09/25 02:39:13;;;;;;;17.98;9.75;;;13.80;99.90;;;;;;5054811;28;20200;-75
2022/09/25 02:41:57;;;;;;;19.27;8.55;;;13.80;99.90;;;;;;5049943;28;20585;-74
2022/09/25 02:44:35;;;;;;;13.63;7.60;;;13.80;99.90;;;;;;5039516;28;20307;-73
2022/09/25 02:47:14;;;;;;;15.02;5.72;;;13.80;99.90;;;;;;5042253;28;20661;-75
2022/09/25 02:49:51;;;;;;;14.15;5.50;;;13.80;99.90;;;;;;5028593;28;20628;-73
2022/09/25 02:52:26;;;;;;;14.98;7.00;;;13.80;99.90;;;;;;5043133;28;20538;-75
2022/09/25 02:54:56;;;;;;;12.65;5.60;;;13.80;99.90;;;;;;5042835;28;20591;-74
2022/09/25 02:57:29;;;;;;;11.15;6.13;;;13.80;99.90;;;;;;5042311;28;20247;-75
2022/09/25 03:00:00;;;;;;;8.55;5.57;;;13.90;99.90;;;;;;5037145;28;20258;-75
2022/09/25 03:02:30;;;;;;;8.68;5.13;;;13.80;99.90;;;;;;5043772;28;20290;-75
2022/09/25 03:04:58;;;;;;;9.88;5.68;;;13.80;99.90;;;;;;5043186;28;20643;-73
2022/09/25 03:07:25;;;;;;;10.57;4.97;;;13.80;99.90;;;;;;5048757;28;21559;-75
2022/09/25 03:09:54;;;;;;;13.43;6.75;;;13.80;99.90;;;;;;5057439;28;20196;-75
2022/09/25 03:12:21;;;;;;;14.13;5.20;;;13.80;99.90;;;;;;5055156;28;20192;-75
2022/09/25 03:14:48;;;;;;;14.73;5.60;;;13.80;99.90;;;;;;5048765;28;20207;-75
2022/09/25 03:17:16;;;;;;;15.02;4.68;;;13.80;99.90;;;;;;5045196;28;20687;-75
2022/09/25 03:19:44;;;;;;;15.13;5.10;;;13.80;99.90;;;;;;5046348;28;20659;-74
2022/09/25 03:22:11;;;;;;;26.42;6.43;;;13.90;99.90;;;;;;5041200;28;20204;-75
2022/09/25 03:24:38;;;;;;;14.20;4.97;;;13.90;99.90;;;;;;5045327;28;20228;-75
2022/09/25 03:27:05;;;;;;;15.48;5.07;;;13.90;99.90;;;;;;5041557;28;20307;-75
2022/09/25 03:29:32;;;;;;;12.82;5.20;;;13.90;99.90;;;;;;5046904;28;20317;-74
2022/09/25 03:31:59;;;;;;;11.75;4.68;;;13.90;99.90;;;;;;5050813;28;20257;-73
2022/09/25 03:34:26;;;;;;;10.98;5.97;;;13.90;99.90;;;;;;5054097;28;20283;-74
2022/09/25 03:36:54;;;;;;;13.75;6.80;;;13.90;99.90;;;;;;5046918;28;20230;-74
2022/09/25 03:39:21;;;;;;;11.30;4.38;;;13.90;99.90;;;;;;5052378;28;20299;-74
2022/09/25 03:41:49;;;;;;;12.00;4.75;;;13.90;99.90;;;;;;5050384;28;20211;-75
2022/09/25 03:44:16;;;;;;;16.13;5.20;;;13.90;99.90;;;;;;5046181;28;20223;-73
2022/09/25 03:46:43;;;;;;;14.90;5.10;;;13.90;99.90;;;;;;5041862;28;20229;-74
2022/09/25 03:49:11;;;;;;;19.58;5.57;;;13.90;99.90;;;;;;5047354;28;20307;-75
2022/09/25 03:51:40;;;;;;;10.43;4.65;;;13.90;99.90;;;;;;5038781;28;20617;-74
2022/09/25 03:54:09;;;;;;;9.50;5.07;;;13.90;99.90;;;;;;5045245;28;20214;-75
2022/09/25 03:56:36;;;;;;;8.32;4.28;;;13.90;99.90;;;;;;5053081;28;20228;-73
2022/09/25 03:59:03;;;;;;;16.08;3.85;;;13.90;99.90;;;;;;5053972;28;20283;-74
2022/09/25 04:01:30;;;;;;;12.38;4.43;;;13.90;99.90;;;;;;5059686;28;20199;-74
2022/09/25 04:04:01;;;;;;;13.48;4.00;;;13.90;99.90;;;;;;5057822;28;20235;-74
2022/09/25 04:06:29;;;;;;;14.90;5.18;;;13.80;99.90;;;;;;5049947;28;20209;-76
2022/09/25 04:08:56;;;;;;;13.27;4.53;;;13.80;99.90;;;;;;5058248;28;20288;-75
2022/09/25 04:11:25;;;;;;;8.45;3.90;;;13.80;99.90;;;;;;5053311;28;20283;-73
2022/09/25 04:13:52;;;;;;;11.27;3.65;;;13.80;99.90;;;;;;5057859;28;20283;-75
2022/09/25 04:16:20;;;;;;;6.20;3.63;;;13.70;99.90;;;;;;5040175;28;20207;-73
2022/09/25 04:18:47;;;;;;;10.85;4.65;;;13.70;99.90;;;;;;5043238;28;20715;-75
2022/09/25 04:21:15;;;;;;;11.63;4.28;;;13.70;99.90;;;;;;5039029;28;20301;-74
2022/09/25 04:24:46;;;;;;;15.73;5.78;;;13.60;99.90;;;;;;5047866;28;20221;-74
2022/09/25 04:26:33;;;;;;;8.90;3.33;;;13.60;99.90;;;;;;5040720;28;20210;-73
2022/09/25 04:29:00;;;;;;;6.93;4.60;;;13.50;99.90;;;;;;5041489;28;20242;-75
2022/09/25 04:31:28;;;;;;;10.20;4.60;;;13.40;99.90;;;;;;5049265;28;20202;-74
2022/09/25 04:33:54;;;;;;;14.55;4.72;;;13.40;99.90;;;;;;5041238;28;20211;-75
2022/09/25 04:36:21;;;;;;;15.23;5.20;;;13.30;99.90;;;;;;5039702;28;20576;-72
2022/09/25 04:38:49;;;;;;;9.88;4.63;;;13.30;99.90;;;;;;5045997;28;20476;-74
2022/09/25 04:41:18;;;;;;;9.38;5.38;;;13.30;99.90;;;;;;5039191;28;20201;-75
2022/09/25 04:43:47;;;;;;;8.82;4.30;;;13.20;99.90;;;;;;5039125;28;20230;-74
2022/09/25 04:46:14;;;;;;;17.77;5.78;;;13.10;99.90;;;;;;5042127;28;20729;-74
2022/09/25 04:48:44;;;;;;;13.60;5.50;;;13.10;99.90;;;;;;5038544;28;20227;-74
2022/09/25 04:51:11;;;;;;;11.82;5.40;;;13.00;99.90;;;;;;5040295;28;20202;-73
2022/09/25 04:53:38;;;;;;;14.65;5.32;;;12.90;99.90;;;;;;5046115;28;20270;-71
2022/09/25 04:56:07;;;;;;;11.02;6.20;;;12.90;99.90;;;;;;5058427;28;20214;-73
2022/09/25 04:58:35;;;;;;;10.45;5.10;;;12.80;99.90;;;;;;5051469;28;20306;-76
2022/09/25 05:01:05;;;;;;;12.95;5.70;;;12.80;99.90;;;;;;5050077;28;20201;-74
2022/09/25 05:03:32;;;;;;;13.90;5.45;;;12.80;99.90;;;;;;5043704;28;20208;-73
2022/09/25 05:05:59;;;;;;;10.30;4.85;;;12.80;99.90;;;;;;5047715;28;20211;-74
2022/09/25 05:08:29;;;;;;;13.82;5.65;;;12.80;99.90;;;;;;5043262;28;20314;-74
2022/09/25 05:10:56;;;;;;;12.73;6.25;;;12.70;99.90;;;;;;5041501;28;20560;-73
2022/09/25 05:13:22;;;;;;;18.30;4.75;;;12.80;99.90;;;;;;5037608;28;20217;-76
2022/09/25 05:15:49;;;;;;;7.18;4.65;;;12.70;99.90;;;;;;5048352;28;20210;-75
2022/09/25 05:18:20;;;;;;;12.60;6.13;;;12.70;99.90;;;;;;5040110;28;20319;-74
2022/09/25 05:20:47;;;;;;;13.40;4.50;;;12.70;99.90;;;;;;5043135;28;20661;-75
2022/09/25 05:23:15;;;;;;;7.95;4.75;;;12.70;99.90;;;;;;5045307;28;20305;-74
2022/09/25 05:25:42;;;;;;;8.55;5.78;;;12.70;99.90;;;;;;5038602;28;20197;-74
2022/09/25 05:28:10;;;;;;;14.30;5.80;;;12.70;99.90;;;;;;5033788;28;20300;-75
2022/09/25 05:30:38;;;;;;;14.27;6.25;;;12.60;99.90;;;;;;5037331;28;20209;-75
2022/09/25 05:33:05;;;;;;;8.25;5.30;;;12.60;99.90;;;;;;5042798;28;20229;-75
2022/09/25 05:35:34;;;;;;;10.30;5.07;;;12.60;99.90;;;;;;5044782;28;20647;-76
2022/09/25 05:38:01;;;;;;;12.95;5.93;;;12.60;99.90;;;;;;5052797;28;20299;-76
2022/09/25 05:40:37;;;;;;;11.35;5.28;;;12.60;99.90;;;;;;5053492;28;20296;-73
2022/09/25 05:43:05;;;;;;;9.88;5.60;;;12.60;99.90;;;;;;5053413;28;20202;-76
2022/09/25 05:45:32;;;;;;;10.45;5.60;;;12.50;99.90;;;;;;5050242;28;20210;-74
2022/09/25 05:48:03;;;;;;;12.88;5.70;;;12.50;99.90;;;;;;5042003;28;20233;-74
2022/09/25 05:50:32;;;;;;;10.30;5.60;;;12.50;99.90;;;;;;5050014;28;20216;-74
2022/09/25 05:53:01;;;;;;;11.80;5.55;;;12.50;99.90;;;;;;5049634;28;20213;-74
2022/09/25 05:55:28;;;;;;;9.25;5.75;;;12.50;99.90;;;;;;5052165;28;20274;-76
2022/09/25 05:58:00;;;;;;;15.00;4.97;;;12.60;99.90;;;;;;5055641;28;20730;-75
2022/09/25 06:00:27;;;;;;;15.32;5.30;;;12.60;99.90;;;;;;5051418;28;20201;-74
2022/09/25 06:02:54;;;;;;;13.23;5.30;;;12.60;99.90;;;;;;5056343;28;20558;-74
2022/09/25 06:05:22;;;;;;;13.75;6.95;;;12.60;99.90;;;;;;5055898;28;20638;-75
2022/09/25 06:07:53;;;;;;;12.90;5.32;;;12.60;99.90;;;;;;5050708;28;20720;-74
2022/09/25 06:10:24;;;;;;;8.98;4.88;;;12.60;99.90;;;;;;5049070;28;20289;-74
2022/09/25 06:12:54;;;;;;;9.50;6.38;;;12.60;99.90;;;;;;5056138;28;20240;-75
2022/09/25 06:15:36;;;;;;;8.05;4.30;;;12.70;99.90;;;;;;5062692;28;20203;-75
2022/09/25 06:18:05;;;;;;;19.75;5.95;;;12.70;99.90;;;;;;5053354;28;20234;-73
2022/09/25 06:20:32;;;;;;;11.52;5.18;;;12.80;99.90;;;;;;5055620;28;20284;-74
2022/09/25 06:23:00;;;;;;;9.07;4.63;;;12.80;99.90;;;;;;5064035;28;20234;-75
2022/09/25 06:25:32;;;;;;;15.90;5.32;;;12.80;99.90;;;;;;5049285;28;20202;-75
2022/09/25 06:28:00;;;;;;;10.52;4.60;;;12.90;99.90;;;;;;5048883;28;20240;-74
2022/09/25 06:30:33;;;;;;;8.13;3.65;;;13.20;99.90;;;;;;5060697;28;20204;-74
2022/09/25 06:33:05;;;;;;;10.98;3.63;;;14.30;99.90;;;;;;5042599;28;20207;-74
2022/09/25 06:35:33;;;;;;;5.97;2.88;;;15.50;99.90;;;;;;5057179;28;20209;-75
2022/09/25 06:38:02;;;;;;;7.95;2.60;;;15.90;99.90;;;;;;5050333;28;20681;-73
2022/09/25 06:40:31;;;;;;;6.53;3.15;;;16.00;99.90;;;;;;5070479;28;20195;-74
2022/09/25 06:42:59;;;;;;;6.95;3.65;;;15.90;99.90;;;;;;5054544;28;20715;-73
2022/09/25 06:45:32;;;;;;;6.93;3.47;;;16.00;99.90;;;;;;5052331;28;20212;-74
2022/09/25 06:48:07;;;;;;;7.00;3.53;;;16.30;99.90;;;;;;5030835;28;20607;-74
2022/09/25 06:50:45;;;;;;;6.03;2.50;;;17.40;99.90;;;;;;5042365;28;20521;-73
2022/09/25 06:53:13;;;;;;;7.63;2.70;;;18.70;99.90;;;;;;5053009;28;20472;-73
2022/09/25 06:55:44;;;;;;;7.00;2.80;;;19.70;99.90;;;;;;5053733;28;20481;-71
2022/09/25 06:58:13;;;;;;;4.80;2.63;;;19.80;99.90;;;;;;5048657;28;20497;-75
2022/09/25 07:00:46;;;;;;;11.90;3.27;;;19.70;99.90;;;;;;5053811;28;20439;-76
2022/09/25 07:06:00;;;;;;;8.03;3.10;;;19.90;99.90;;;;;;5042936;28;21006;-73
2022/09/25 07:08:27;;;;;;;8.87;3.30;;;19.90;99.90;;;;;;5047326;28;20480;-74
2022/09/25 07:10:57;;;;;;;9.60;3.83;;;20.30;99.90;;;;;;5054679;28;20556;-73
2022/09/25 07:13:27;;;;;;;8.30;3.37;;;21.00;99.90;;;;;;5049696;28;20464;-73
2022/09/25 07:15:56;;;;;;;7.07;3.37;;;21.60;99.90;;;;;;5040261;28;20443;-75
2022/09/25 07:18:24;;;;;;;5.33;3.07;;;21.30;99.90;;;;;;5047485;28;20563;-73
2022/09/25 07:20:52;;;;;;;9.30;3.97;;;21.50;99.90;;;;;;5055391;28;20520;-73
2022/09/25 07:23:21;;;;;;;5.27;3.23;;;22.00;99.90;;;;;;5044960;28;20785;-74
2022/09/25 07:25:48;;;;;;;6.60;3.83;;;22.60;98.90;;;;;;5051823;28;20454;-73
2022/09/25 07:28:18;;;;;;;5.00;3.10;;;23.10;97.20;;;;;;5053696;28;20529;-73
2022/09/25 07:30:45;;;;;;;6.00;2.70;;;23.60;95.90;;;;;;5038279;28;20486;-72
2022/09/25 07:33:14;;;;;;;7.13;2.80;;;24.10;94.70;;;;;;5041404;28;20553;-70
2022/09/25 07:35:40;;;;;;;6.13;2.57;;;24.60;94.00;;;;;;5054365;28;20542;-72
2022/09/25 07:38:08;;;;;;;9.50;4.13;;;24.90;93.30;;;;;;5048364;28;20477;-71
2022/09/25 07:40:35;;;;;;;6.83;3.13;;;25.30;92.40;;;;;;5044195;28;20794;-73
2022/09/25 07:43:02;;;;;;;7.50;3.37;;;25.40;91.70;;;;;;5039312;28;21015;-73
2022/09/25 07:45:31;;;;;;;9.10;3.70;;;25.50;91.50;;;;;;5043098;28;20446;-74
2022/09/25 07:47:59;;;;;;;6.70;3.07;;;25.70;90.80;;;;;;5045902;28;20593;-74
2022/09/25 07:50:27;;;;;;;6.33;2.90;;;25.90;90.90;;;;;;5042185;28;20470;-71
2022/09/25 07:52:54;;;;;;;7.03;2.90;;;25.90;90.00;;;;;;5048406;28;20886;-72
2022/09/25 07:55:21;;;;;;;3.60;1.90;;;26.10;89.60;;;;;;5043515;28;20442;-73
2022/09/25 07:57:49;;;;;;;6.17;2.37;;;26.20;89.10;;;;;;5042271;28;20497;-72
2022/09/25 08:00:16;;;;;;;5.00;2.20;;;26.60;88.10;;;;;;5041460;28;20447;-74
2022/09/25 08:02:45;;;;;;;7.90;2.53;;;26.20;87.40;;;;;;5034274;28;20823;-73
2022/09/25 08:05:14;;;;;;;4.53;2.20;;;25.90;88.80;;;;;;5047461;28;20478;-72
2022/09/25 08:07:41;;;;;;;6.60;3.30;;;25.90;88.80;;;;;;5057294;28;20474;-72
2022/09/25 08:10:10;;;;;;;4.90;2.60;;;25.80;90.00;;;;;;5053339;28;20910;-71
2022/09/25 08:12:39;;;;;;;2.47;1.60;;;26.10;89.20;;;;;;5041403;28;20838;-70
2022/09/25 08:15:07;;;;;;;3.53;2.00;;;26.50;86.70;;;;;;5041566;28;20472;-70
2022/09/25 08:17:34;;;;;;;4.97;1.87;;;25.80;86.90;;;;;;5046285;28;20834;-73
2022/09/25 08:20:03;;;;;;;5.43;2.27;;;25.50;88.70;;;;;;5043937;28;20448;-75
2022/09/25 08:22:30;;;;;;;4.73;2.00;;;25.10;89.90;;;;;;5037099;28;20455;-73
2022/09/25 08:24:57;;;;;;;4.03;2.03;;;25.10;90.20;;;;;;5047810;28;20534;-72
2022/09/25 08:27:29;;;;;;;5.83;2.53;;;25.50;89.30;;;;;;5047098;28;20488;-74
2022/09/25 08:29:56;;;;;;;2.63;1.53;;;25.40;89.70;;;;;;5041238;28;20566;-71
2022/09/25 08:32:23;;;;;;;4.27;1.67;;;25.30;90.30;;;;;;5043800;28;20492;-71
2022/09/25 08:34:50;;;;;;;9.10;1.80;;;25.00;89.60;;;;;;5042199;28;20493;-72
2022/09/25 08:37:19;;;;;;;4.20;1.63;;;24.80;90.50;;;;;;5041552;28;20473;-73
2022/09/25 08:39:46;;;;;;;3.87;1.80;;;25.10;89.10;;;;;;5041573;28;20866;-71
2022/09/25 08:42:19;;;;;;;4.43;1.87;;;25.00;89.10;;;;;;5042311;28;20445;-74
2022/09/25 08:49:00;;;;;;;2.30;1.63;;;25.40;89.60;;;;;;5046704;28;20474;-73
2022/09/25 08:50:23;;;;;;;4.60;1.50;;;26.70;85.10;;;;;;5043241;28;20830;-73
2022/09/25 08:52:57;;;;;;;3.80;1.67;;;27.20;83.00;;;;;;5047184;28;21035;-71
2022/09/25 08:56:13;;;;;;;4.50;2.07;;;27.50;82.10;;;;;;5030848;28;20801;-72
2022/09/25 08:58:22;;;;;;;5.30;2.10;;;27.50;81.60;;;;;;5040765;28;20980;-73
2022/09/25 09:00:49;;;;;;;3.50;1.60;;;27.50;82.10;;;;;;5037111;28;20470;-73
2022/09/25 09:03:17;;;;;;;2.20;1.20;;;28.30;81.30;;;;;;5047017;28;20448;-72
2022/09/25 09:05:45;;;;;;;7.90;5.20;;;28.60;77.80;;;;;;5046034;28;20533;-74
2022/09/25 09:08:17;;;;;;;4.27;1.43;;;28.20;77.80;;;;;;5041830;28;20470;-73
2022/09/25 09:10:48;;;;;;;7.17;1.60;;;28.20;78.50;;;;;;5039907;28;20486;-73
2022/09/25 09:13:22;;;;;;;6.47;1.97;;;28.70;76.90;;;;;;5038952;28;20458;-73
2022/09/25 09:15:54;;;;;;;2.90;1.90;;;29.20;76.70;;;;;;5052240;28;20497;-72
2022/09/25 09:18:23;;;;;;;3.83;1.73;;;29.40;74.20;;;;;;5044179;28;20485;-73
2022/09/25 09:20:53;;;;;;;2.80;1.53;;;28.20;75.20;;;;;;5045422;28;20526;-75
2022/09/25 09:23:23;;;;;;;6.87;2.47;;;26.60;78.30;;;;;;5039596;28;20475;-74
2022/09/25 09:25:59;;;;;;;5.60;2.17;;;25.20;83.00;;;;;;5051821;28;20526;-74
2022/09/25 09:29:14;;;;;;;9.37;3.60;;;24.20;86.30;;;;;;5039479;28;20471;-74
2022/09/25 09:31:52;;;;;;;3.60;1.93;;;23.50;90.60;;;;;;4962461;28;20499;-74
2022/09/25 09:34:40;;;;;;;3.70;1.97;;;23.00;90.90;;;;;;5040618;28;20481;-75
2022/09/25 09:37:18;;;;;;;8.43;2.70;;;23.00;91.50;;;;;;5058770;28;20458;-73
2022/09/25 09:39:52;;;;;;;9.30;4.00;;;22.90;91.40;;;;;;5033250;28;20461;-74
2022/09/25 09:42:30;;;;;;;4.17;2.53;;;23.00;92.70;;;;;;5047003;28;20441;-73
2022/09/25 09:45:07;;;;;;;3.70;2.10;;;23.70;91.70;;;;;;5051855;28;20477;-74
2022/09/25 09:47:46;;;;;;;7.13;2.30;;;24.10;89.90;;;;;;5042859;28;20542;-72
2022/09/25 09:50:27;;;;;;;5.90;2.03;;;23.90;90.90;;;;;;5040216;28;20485;-72
2022/09/25 09:53:01;;;;;;;5.13;1.33;;;23.50;90.70;;;;;;5037761;28;20450;-73
2022/09/25 09:55:37;;;;;;;4.90;1.80;;;23.40;90.60;;;;;;5037435;28;20482;-73
2022/09/25 09:58:19;;;;;;;3.83;1.90;;;23.60;90.80;;;;;;5023406;28;20475;-70
2022/09/25 10:00:48;;;;;;;8.17;2.43;;;23.50;90.40;;;;;;5042887;28;20521;-77
2022/09/25 10:03:20;;;;;;;4.23;1.80;;;23.20;90.80;;;;;;5052402;28;20452;-79
2022/09/25 10:05:49;;;;;;;5.57;2.67;;;22.50;91.10;;;;;;5053693;28;20458;-78
2022/09/25 10:08:16;;;;;;;6.33;2.33;;;22.10;92.40;;;;;;5056943;28;20493;-75
2022/09/25 10:10:52;;;;;;;4.47;1.53;;;22.10;92.70;;;;;;5049743;28;20477;-74
2022/09/25 10:13:22;;;;;;;3.83;1.80;;;22.20;92.40;;;;;;5067771;28;20441;-76
2022/09/25 10:15:53;;;;;;;4.50;1.40;;;22.80;92.50;;;;;;5051064;28;20430;-77
2022/09/25 10:18:22;;;;;;;4.17;1.60;;;23.30;90.50;;;;;;5041550;28;20910;-75
2022/09/25 10:20:55;;;;;;;4.50;1.67;;;23.30;90.70;;;;;;5041027;28;20457;-76
2022/09/25 10:23:35;;;;;;;4.17;1.30;;;23.80;89.90;;;;;;5043896;28;20972;-75
2022/09/25 10:26:05;;;;;;;6.53;1.73;;;24.40;88.40;;;;;;5035508;28;20485;-75
2022/09/25 10:28:34;;;;;;;2.70;1.77;;;25.10;87.50;;;;;;5041815;28;20484;-77
2022/09/25 10:31:05;;;;;;;3.77;1.50;;;25.50;85.70;;;;;;5046349;28;20560;-76
2022/09/25 10:33:33;;;;;;;2.53;1.70;;;25.50;84.60;;;;;;5049185;28;20465;-75
2022/09/25 10:36:00;;;;;;;5.60;1.30;;;25.20;85.00;;;;;;5048445;28;20925;-76
2022/09/25 10:38:34;;;;;;;5.20;1.60;;;24.80;84.80;;;;;;5045813;28;20507;-76
2022/09/25 10:41:06;;;;;;;10.20;2.10;;;24.40;86.30;;;;;;5048880;28;20525;-76
2022/09/25 10:43:34;;;;;;;3.40;1.30;;;23.60;88.10;;;;;;5041811;28;20452;-74
2022/09/25 10:46:13;;;;;;;4.50;1.30;;;23.10;88.90;;;;;;5045364;28;20534;-74
2022/09/25 10:51:26;;;;;;;6.43;1.30;;;22.60;90.30;;;;;;5043146;28;20466;-75
2022/09/25 10:54:11;;;;;;;8.53;1.60;;;22.30;90.80;;;;;;5038034;28;21197;-73
2022/09/25 10:56:40;;;;;;;5.30;1.53;;;21.90;90.90;;;;;;5043311;28;20533;-75
2022/09/25 10:59:16;;;;;;;2.40;1.20;;;21.50;91.70;;;;;;5042817;28;20547;-72
2022/09/25 11:01:44;;;;;;;2.80;1.10;;;21.00;92.80;;;;;;5040176;28;20450;-73
2022/09/25 11:04:16;;;;;;;8.70;1.60;;;20.50;93.80;;;;;;5045911;28;20520;-74
2022/09/25 11:06:46;;;;;;;12.17;4.40;;;20.30;95.20;;;;;;5038880;28;20534;-76
2022/09/25 11:09:16;;;;;;;8.57;1.53;;;20.30;95.10;;;;;;5044400;28;20451;-74
2022/09/25 11:11:45;;;;;;;3.23;2.43;;;20.30;95.50;;;;;;5044895;28;20924;-74
2022/09/25 11:14:23;;;;;;;4.93;2.87;;;20.30;94.80;;;;;;5045204;28;20461;-75
2022/09/25 11:16:56;;;;;;;3.40;1.27;;;20.10;94.50;;;;;;5040482;28;20481;-74
2022/09/25 11:19:28;;;;;;;4.83;1.63;;;20.00;96.00;;;;;;5041270;28;20806;-74
2022/09/25 11:22:11;;;;;;;4.30;1.83;;;19.60;95.80;;;;;;5042923;28;20445;-76
2022/09/25 11:25:04;;;;;;;3.53;1.20;;;19.20;96.40;;;;;;5039994;28;20465;-74
2022/09/25 11:27:38;;;;;;;1.70;1.23;;;18.80;97.80;;;;;;5038176;28;20580;-75
2022/09/25 11:30:11;;;;;;;3.27;1.13;;;18.50;98.00;;;;;;5034607;28;20457;-76
2022/09/25 11:32:44;;;;;;;3.30;1.20;;;18.20;99.70;;;;;;5042183;28;20526;-75
2022/09/25 11:35:24;;;;;;;4.13;2.33;;;18.10;99.90;;;;;;5036678;28;20446;-75
2022/09/25 11:38:02;;;;;;;5.83;1.47;;;18.00;99.90;;;;;;5055337;28;20465;-74
2022/09/25 11:43:38;;;;;;;3.23;1.27;;;17.90;99.90;;;;;;5046652;28;20864;-74
2022/09/25 11:46:17;;;;;;;2.90;1.17;;;18.00;99.90;;;;;;5033333;28;20439;-74
2022/09/25 11:48:53;;;;;;;2.70;1.20;;;17.90;99.90;;;;;;5030286;28;20481;-74
2022/09/25 11:51:27;;;;;;;8.10;1.63;;;18.00;99.90;;;;;;5020952;28;20482;-74
2022/09/25 11:54:05;;;;;;;4.90;1.40;;;18.10;99.90;;;;;;5048766;28;20478;-74
2022/09/25 11:56:41;;;;;;;2.80;1.30;;;18.20;99.90;;;;;;5021930;28;20447;-76
2022/09/25 11:59:24;;;;;;;4.80;2.00;;;18.20;99.90;;;;;;5030923;28;20449;-74
2022/09/25 12:01:58;;;;;;;7.03;1.80;;;18.20;99.90;;;;;;5037753;28;20928;-77
2022/09/25 12:04:50;;;;;;;8.87;4.67;;;18.30;99.90;;;;;;5041679;28;20477;-73
2022/09/25 12:07:32;;;;;;;6.90;3.03;;;18.40;99.90;;;;;;5041726;28;20578;-74
2022/09/25 12:10:23;;;;;;;5.77;1.50;;;18.50;99.90;;;;;;5040520;28;20447;-74
2022/09/25 12:12:58;;;;;;;4.17;1.63;;;18.50;99.90;;;;;;5042158;28;21023;-76
2022/09/25 12:15:42;;;;;;;3.30;1.53;;;18.40;99.90;;;;;;5026740;28;20466;-74
2022/09/25 12:18:17;;;;;;;3.83;1.63;;;18.20;99.90;;;;;;5023842;28;20513;-75
2022/09/25 12:20:51;;;;;;;3.97;1.83;;;18.20;99.90;;;;;;5038874;28;20471;-75
2022/09/25 12:23:27;;;;;;;10.20;2.23;;;18.00;99.90;;;;;;5036457;28;20530;-75
2022/09/25 12:26:17;;;;;;;4.30;1.40;;;18.10;99.90;;;;;;5036297;28;20541;-74
2022/09/25 12:28:58;;;;;;;3.73;1.80;;;18.20;99.90;;;;;;5035764;28;20641;-76
2022/09/25 12:31:38;;;;;;;6.50;3.20;;;18.30;99.90;;;;;;5033426;28;20862;-75
2022/09/25 12:34:14;;;;;;;5.77;1.90;;;18.40;99.90;;;;;;5042228;28;20445;-76
2022/09/25 12:36:45;;;;;;;5.33;1.33;;;18.40;99.90;;;;;;5020949;28;20870;-76
2022/09/25 12:39:27;;;;;;;3.83;1.40;;;18.40;99.90;;;;;;5041593;28;20819;-76
2022/09/25 12:42:05;;;;;;;3.03;1.43;;;18.40;99.90;;;;;;5046183;28;21028;-74
2022/09/25 12:44:40;;;;;;;7.03;2.07;;;18.60;99.90;;;;;;5037976;28;20516;-73
2022/09/25 12:47:16;;;;;;;6.50;1.90;;;18.70;99.90;;;;;;5038226;28;20552;-72
2022/09/25 12:49:49;;;;;;;6.33;2.27;;;18.70;99.90;;;;;;5023630;28;20500;-72
2022/09/25 12:52:22;;;;;;;4.00;1.93;;;18.80;99.90;;;;;;5026902;28;20913;-75
2022/09/25 12:54:55;;;;;;;9.17;2.80;;;18.80;99.90;;;;;;5046342;28;20526;-75
2022/09/25 12:57:27;;;;;;;7.00;2.13;;;18.80;99.90;;;;;;5043903;28;20537;-75
2022/09/25 12:59:58;;;;;;;7.33;2.40;;;18.80;99.90;;;;;;5035829;28;20454;-75
2022/09/25 13:02:38;;;;;;;4.70;1.83;;;18.70;99.90;;;;;;5049122;28;20466;-74
2022/09/25 13:05:11;;;;;;;6.17;2.07;;;18.50;99.90;;;;;;5047650;28;20475;-74
2022/09/25 13:07:45;;;;;;;5.13;1.90;;;18.50;99.90;;;;;;5031040;28;20541;-75
2022/09/25 13:10:23;;;;;;;4.93;1.83;;;18.40;99.90;;;;;;5041240;28;20871;-75
2022/09/25 13:12:51;;;;;;;8.50;2.33;;;18.30;99.90;;;;;;5038723;28;20493;-73
2022/09/25 13:15:22;;;;;;;6.80;2.07;;;18.20;99.90;;;;;;5039962;28;20533;-73
2022/09/25 13:17:50;;;;;;;6.23;1.97;;;18.10;99.90;;;;;;5040900;28;20475;-74
2022/09/25 13:20:50;;;;;;;3.13;1.30;;;18.10;99.90;;;;;;5054937;28;20542;-75
2022/09/25 13:23:28;;;;;;;4.80;2.03;;;18.20;99.90;;;;;;5046762;28;20442;-76